Time;durP1;ratioP1;P1;durP2;ratioP2;P2;SDS_P1;SDS_P2;PMS_P1;PMS_P2;Temp;Humidity;BMP_temperature;BMP_pressure;BME280_temperature;BME280_humidity;BME280_pressure;Samples;Min_cycle;Max_cycle;Signal;HPM_P1;HPM_P2
2024/01/08 00:00:46;;;;;;;;;;;;;;;19.43;40.28;102314.38;2052706;28;6066;-67
2024/01/08 00:01:50;;;;;;;;;;;;;;;19.43;40.37;102325.88;2054577;28;2563;-68
2024/01/08 00:02:51;;;;;;;;;;;;;;;19.42;40.21;102328.00;2061708;28;1982;-68
2024/01/08 00:03:53;;;;;;;;;;;;;;;19.42;40.31;102325.13;2059175;28;2359;-68
2024/01/08 00:04:54;;;;;;;;;;;;;;;19.43;40.34;102320.13;2061124;28;2125;-67
2024/01/08 00:05:56;;;;;;;;;;;;;;;19.42;40.31;102330.09;2064607;28;1635;-67
2024/01/08 00:06:57;;;;;;;;;;;;;;;19.42;40.24;102324.34;2060073;28;1710;-68
2024/01/08 00:07:59;;;;;;;;;;;;;;;19.43;40.26;102331.63;2060641;28;2268;-67
2024/01/08 00:09:00;;;;;;;;;;;;;;;19.41;40.33;102322.84;2061962;28;2154;-68
2024/01/08 00:10:02;;;;;;;;;;;;;;;19.41;40.39;102329.34;2060812;28;1908;-68
2024/01/08 00:11:03;;;;;;;;;;;;;;;19.40;40.34;102330.72;2061825;28;2244;-68
2024/01/08 00:12:05;;;;;;;;;;;;;;;19.40;40.30;102327.84;2061432;28;2191;-68
2024/01/08 00:13:06;;;;;;;;;;;;;;;19.42;40.30;102324.34;2060998;28;1978;-68
2024/01/08 00:14:07;;;;;;;;;;;;;;;19.41;40.38;102323.59;2060875;28;1809;-67
2024/01/08 00:15:09;;;;;;;;;;;;;;;19.43;40.30;102331.63;2059320;28;2213;-68
2024/01/08 00:16:11;;;;;;;;;;;;;;;19.42;40.42;102330.09;2059152;28;1593;-68
2024/01/08 00:17:17;;;;;;;;;;;;;;;19.42;40.33;102335.84;2061210;28;2200;-68
2024/01/08 00:18:20;;;;;;;;;;;;;;;19.42;40.37;102333.75;2058608;28;2443;-68
2024/01/08 00:19:22;;;;;;;;;;;;;;;19.42;40.38;102335.84;2059408;28;1587;-67
2024/01/08 00:20:23;;;;;;;;;;;;;;;19.43;40.29;102337.38;2058881;28;1508;-68
2024/01/08 00:21:27;;;;;;;;;;;;;;;19.42;40.32;102336.63;2054626;28;1551;-71
2024/01/08 00:22:28;;;;;;;;;;;;;;;19.43;40.32;102332.38;2052970;28;1922;-72
2024/01/08 00:23:30;;;;;;;;;;;;;;;19.43;40.32;102329.50;2058650;28;1813;-71
2024/01/08 00:24:32;;;;;;;;;;;;;;;19.43;40.47;102337.38;2061825;28;2218;-68
2024/01/08 00:25:33;;;;;;;;;;;;;;;19.43;40.29;102348.88;2059067;28;1981;-67
2024/01/08 00:26:34;;;;;;;;;;;;;;;19.43;40.28;102334.50;2058068;28;2200;-67
2024/01/08 00:27:36;;;;;;;;;;;;;;;19.43;40.32;102338.13;2062831;28;1599;-67
2024/01/08 00:28:37;;;;;;;;;;;;;;;19.44;40.28;102338.88;2059119;28;2227;-67
2024/01/08 00:29:39;;;;;;;;;;;;;;;19.44;40.39;102341.75;2062914;28;1550;-67
2024/01/08 00:30:40;;;;;;;;;;;;;;;19.44;40.45;102338.88;2058639;28;6542;-67
2024/01/08 00:31:41;;;;;;;;;;;;;;;19.43;40.36;102343.13;2059665;28;1586;-67
2024/01/08 00:32:43;;;;;;;;;;;;;;;19.43;40.46;102337.38;2060881;28;2248;-67
2024/01/08 00:33:45;;;;;;;;;;;;;;;19.42;40.39;102333.75;2061451;28;2173;-67
2024/01/08 00:34:47;;;;;;;;;;;;;;;19.43;40.39;102337.38;2062172;28;1579;-67
2024/01/08 00:35:48;;;;;;;;;;;;;;;19.42;40.50;102338.72;2059475;28;1579;-67
2024/01/08 00:36:50;;;;;;;;;;;;;;;19.42;40.41;102338.72;2061145;28;1598;-67
2024/01/08 00:37:51;;;;;;;;;;;;;;;19.42;40.49;102332.97;2059061;28;2165;-67
2024/01/08 00:38:53;;;;;;;;;;;;;;;19.41;40.51;102334.34;2058960;28;2196;-67
2024/01/08 00:39:55;;;;;;;;;;;;;;;19.41;40.24;102334.34;2061093;28;1531;-66
2024/01/08 00:40:56;;;;;;;;;;;;;;;19.40;40.48;102339.34;2059217;28;1638;-67
2024/01/08 00:41:58;;;;;;;;;;;;;;;19.42;40.49;102344.47;2061001;28;2291;-67
2024/01/08 00:42:59;;;;;;;;;;;;;;;19.41;40.46;102337.22;2062759;28;2429;-67
2024/01/08 00:44:00;;;;;;;;;;;;;;;19.39;40.43;102342.81;2058343;28;1509;-67
2024/01/08 00:45:02;;;;;;;;;;;;;;;19.40;40.50;102341.44;2061811;28;2203;-67
2024/01/08 00:46:04;;;;;;;;;;;;;;;19.40;40.50;102344.31;2059361;28;1552;-67
2024/01/08 00:47:05;;;;;;;;;;;;;;;19.40;40.44;102341.44;2060674;28;1636;-67
2024/01/08 00:48:07;;;;;;;;;;;;;;;19.40;40.41;102344.31;2059217;28;2114;-67
2024/01/08 00:49:08;;;;;;;;;;;;;;;19.41;40.45;102354.44;2057707;28;2272;-67
2024/01/08 00:50:10;;;;;;;;;;;;;;;19.41;40.52;102351.59;2060017;28;2530;-67
2024/01/08 00:51:11;;;;;;;;;;;;;;;19.39;40.47;102342.81;2061642;28;2192;-67
2024/01/08 00:52:13;;;;;;;;;;;;;;;19.41;40.52;102345.84;2061402;28;1607;-67
2024/01/08 00:53:14;;;;;;;;;;;;;;;19.41;40.52;102345.84;2058395;28;2053;-67
2024/01/08 00:54:16;;;;;;;;;;;;;;;19.41;40.71;102352.31;2059278;28;1659;-67
2024/01/08 00:55:17;;;;;;;;;;;;;;;19.41;40.49;102348.72;2058193;28;2145;-67
2024/01/08 00:56:18;;;;;;;;;;;;;;;19.41;40.49;102352.31;2059540;28;2147;-67
2024/01/08 00:57:20;;;;;;;;;;;;;;;19.42;40.45;102344.47;2059556;28;2414;-67
2024/01/08 00:58:21;;;;;;;;;;;;;;;19.42;40.40;102342.38;2060848;28;1809;-67
2024/01/08 00:59:23;;;;;;;;;;;;;;;19.42;40.59;102348.13;2059012;28;1681;-67
2024/01/08 01:00:24;;;;;;;;;;;;;;;19.42;40.53;102347.34;2057625;28;5993;-67
2024/01/08 01:01:26;;;;;;;;;;;;;;;19.43;40.55;102346.00;2060994;28;1610;-67
2024/01/08 01:02:27;;;;;;;;;;;;;;;19.43;40.51;102340.25;2061693;28;1798;-67
2024/01/08 01:03:29;;;;;;;;;;;;;;;19.43;40.47;102346.75;2060169;28;2365;-67
2024/01/08 01:04:30;;;;;;;;;;;;;;;19.43;40.52;102346.00;2060463;28;2525;-66
2024/01/08 01:05:32;;;;;;;;;;;;;;;19.44;40.56;102350.38;2057270;28;1655;-66
2024/01/08 01:06:33;;;;;;;;;;;;;;;19.45;40.67;102354.75;2061498;28;1604;-66
2024/01/08 01:07:35;;;;;;;;;;;;;;;19.45;40.51;102360.50;2059040;28;2043;-66
2024/01/08 01:08:36;;;;;;;;;;;;;;;19.45;40.59;102351.88;2060444;28;2291;-65
2024/01/08 01:09:38;;;;;;;;;;;;;;;19.45;40.61;102361.25;2060244;28;2077;-66
2024/01/08 01:10:39;;;;;;;;;;;;;;;19.45;40.63;102363.38;2064049;28;2219;-66
2024/01/08 01:11:41;;;;;;;;;;;;;;;19.45;40.72;102358.38;2060468;28;2287;-66
2024/01/08 01:12:42;;;;;;;;;;;;;;;19.46;40.67;102376.38;2059670;28;2435;-66
2024/01/08 01:13:43;;;;;;;;;;;;;;;19.45;40.65;102364.13;2059359;28;2358;-66
2024/01/08 01:14:45;;;;;;;;;;;;;;;19.47;40.64;102372.16;2058956;28;2209;-66
2024/01/08 01:15:46;;;;;;;;;;;;;;;19.46;40.63;102364.88;2057986;28;2169;-66
2024/01/08 01:16:48;;;;;;;;;;;;;;;19.46;40.71;102359.88;2060556;28;1627;-66
2024/01/08 01:17:49;;;;;;;;;;;;;;;19.46;40.70;102347.63;2060527;28;2080;-66
2024/01/08 01:18:51;;;;;;;;;;;;;;;19.45;40.62;102357.63;2059888;28;2262;-66
2024/01/08 01:19:52;;;;;;;;;;;;;;;19.45;40.67;102357.63;2059511;28;2240;-66
2024/01/08 01:20:54;;;;;;;;;;;;;;;19.45;40.75;102357.63;2062513;28;1597;-66
2024/01/08 01:21:55;;;;;;;;;;;;;;;19.44;40.71;102359.72;2059056;28;1745;-66
2024/01/08 01:22:56;;;;;;;;;;;;;;;19.43;40.80;102351.72;2059194;28;2141;-66
2024/01/08 01:23:59;;;;;;;;;;;;;;;19.43;40.62;102355.34;2061962;28;2073;-66
2024/01/08 01:25:01;;;;;;;;;;;;;;;19.43;40.78;102360.34;2060132;28;2196;-66
2024/01/08 01:26:02;;;;;;;;;;;;;;;19.43;40.78;102366.09;2060232;28;1627;-66
2024/01/08 01:27:04;;;;;;;;;;;;;;;19.42;40.74;102359.59;2061460;28;1877;-66
2024/01/08 01:28:05;;;;;;;;;;;;;;;19.42;40.82;102376.84;2059211;28;2211;-65
2024/01/08 01:29:06;;;;;;;;;;;;;;;19.42;40.69;102370.31;2062590;28;1703;-66
2024/01/08 01:30:08;;;;;;;;;;;;;;;19.41;40.67;102357.31;2057497;28;6280;-66
2024/01/08 01:31:10;;;;;;;;;;;;;;;19.41;40.86;102363.06;2060444;28;2169;-66
2024/01/08 01:32:11;;;;;;;;;;;;;;;19.40;40.65;102362.31;2064647;28;1791;-66
2024/01/08 01:33:12;;;;;;;;;;;;;;;19.40;40.82;102356.56;2059841;28;2155;-66
2024/01/08 01:34:15;;;;;;;;;;;;;;;19.42;40.71;102359.59;2060641;28;1651;-65
2024/01/08 01:35:16;;;;;;;;;;;;;;;19.41;40.73;102363.06;2060671;28;2158;-66
2024/01/08 01:36:18;;;;;;;;;;;;;;;19.42;40.68;102364.56;2060998;28;1789;-66
2024/01/08 01:37:20;;;;;;;;;;;;;;;19.41;40.67;102369.56;2056235;28;2219;-66
2024/01/08 01:38:22;;;;;;;;;;;;;;;19.43;40.64;102360.34;2060015;28;2050;-66
2024/01/08 01:39:23;;;;;;;;;;;;;;;19.43;40.68;102366.09;2061175;28;2160;-66
2024/01/08 01:40:25;;;;;;;;;;;;;;;19.42;40.71;102358.81;2061701;28;1631;-66
2024/01/08 01:41:26;;;;;;;;;;;;;;;19.43;40.75;102360.34;2061804;28;1568;-66
2024/01/08 01:42:28;;;;;;;;;;;;;;;19.42;40.60;102365.34;2060835;28;1864;-66
2024/01/08 01:43:29;;;;;;;;;;;;;;;19.43;40.67;102363.97;2063171;28;2205;-66
2024/01/08 01:44:30;;;;;;;;;;;;;;;19.43;40.75;102369.72;2058973;28;1670;-66
2024/01/08 01:45:32;;;;;;;;;;;;;;;19.43;40.78;102366.84;2056958;28;2197;-66
2024/01/08 01:46:33;;;;;;;;;;;;;;;19.44;40.63;102368.34;2060648;28;1995;-66
2024/01/08 01:47:35;;;;;;;;;;;;;;;19.44;40.51;102365.47;2055604;28;2252;-66
2024/01/08 01:48:37;;;;;;;;;;;;;;;19.45;40.72;102372.00;2059435;28;2573;-66
2024/01/08 01:49:39;;;;;;;;;;;;;;;19.46;40.70;102373.50;2061014;28;2245;-66
2024/01/08 01:50:41;;;;;;;;;;;;;;;19.46;40.76;102364.88;2061730;28;2238;-66
2024/01/08 01:51:43;;;;;;;;;;;;;;;19.46;40.67;102373.50;2060056;28;2309;-66
2024/01/08 01:52:44;;;;;;;;;;;;;;;19.46;40.69;102377.13;2060022;28;2316;-66
2024/01/08 01:53:46;;;;;;;;;;;;;;;19.46;40.89;102370.63;2059000;28;2266;-66
2024/01/08 01:54:48;;;;;;;;;;;;;;;19.47;40.83;102377.91;2055401;28;2654;-66
2024/01/08 01:55:50;;;;;;;;;;;;;;;19.47;40.81;102383.66;2051093;28;2228;-66
2024/01/08 01:57:00;;;;;;;;;;;;;;;19.46;40.78;102382.88;2061319;28;2219;-66
2024/01/08 01:58:02;;;;;;;;;;;;;;;19.47;40.83;102380.78;2060599;28;2165;-66
2024/01/08 01:59:03;;;;;;;;;;;;;;;19.48;40.78;102385.16;2060909;28;2113;-66
2024/01/08 02:00:05;;;;;;;;;;;;;;;19.47;40.83;102380.78;2061512;28;6189;-65
2024/01/08 02:01:06;;;;;;;;;;;;;;;19.46;40.88;102376.38;2062491;28;2189;-66
2024/01/08 02:02:10;;;;;;;;;;;;;;;19.46;40.90;102376.38;2063442;28;1722;-66
2024/01/08 02:03:11;;;;;;;;;;;;;;;19.45;40.82;102375.63;2058365;28;2347;-66
2024/01/08 02:04:16;;;;;;;;;;;;;;;19.44;40.88;102368.34;2058991;28;2244;-66
2024/01/08 02:05:17;;;;;;;;;;;;;;;19.44;40.86;102376.22;2058626;28;2125;-66
2024/01/08 02:06:19;;;;;;;;;;;;;;;19.43;40.84;102371.84;2062922;28;1675;-66
2024/01/08 02:07:21;;;;;;;;;;;;;;;19.43;40.85;102371.84;2062052;28;1896;-66
2024/01/08 02:08:23;;;;;;;;;;;;;;;19.42;40.89;102370.31;2059833;28;2255;-66
2024/01/08 02:09:24;;;;;;;;;;;;;;;19.42;40.89;102370.31;2059457;28;2601;-66
2024/01/08 02:10:25;;;;;;;;;;;;;;;19.41;40.99;102369.56;2054506;28;1671;-67
2024/01/08 02:11:27;;;;;;;;;;;;;;;19.41;40.88;102368.81;2054767;28;2267;-66
2024/01/08 02:12:29;;;;;;;;;;;;;;;19.41;40.88;102375.31;2059281;28;2227;-66
2024/01/08 02:13:30;;;;;;;;;;;;;;;19.41;40.84;102381.06;2059654;28;2250;-66
2024/01/08 02:14:32;;;;;;;;;;;;;;;19.41;40.88;102381.06;2061775;28;1552;-66
2024/01/08 02:15:33;;;;;;;;;;;;;;;19.41;40.88;102380.31;2062070;28;2137;-66
2024/01/08 02:16:35;;;;;;;;;;;;;;;19.41;40.85;102371.69;2058503;28;2221;-66
2024/01/08 02:17:38;;;;;;;;;;;;;;;19.42;40.80;102382.59;2063730;28;1678;-66
2024/01/08 02:18:39;;;;;;;;;;;;;;;19.42;40.90;102384.69;2062289;28;1824;-66
2024/01/08 02:19:41;;;;;;;;;;;;;;;19.43;40.90;102383.34;2057984;28;2215;-66
2024/01/08 02:20:42;;;;;;;;;;;;;;;19.44;40.80;102393.44;2058775;28;2263;-66
2024/01/08 02:21:44;;;;;;;;;;;;;;;19.43;40.81;102383.34;2060763;28;2161;-66
2024/01/08 02:22:45;;;;;;;;;;;;;;;19.43;40.88;102389.09;2063862;28;2063;-66
2024/01/08 02:23:46;;;;;;;;;;;;;;;19.43;40.84;102389.09;2060611;28;1910;-66
2024/01/08 02:24:48;;;;;;;;;;;;;;;19.43;40.78;102386.97;2063671;28;1605;-66
2024/01/08 02:25:52;;;;;;;;;;;;;;;19.44;40.88;102384.84;2059843;28;1654;-65
2024/01/08 02:26:53;;;;;;;;;;;;;;;19.44;40.89;102396.31;2060678;28;1924;-66
2024/01/08 02:27:55;;;;;;;;;;;;;;;19.44;40.81;102384.84;2059405;28;2263;-66
2024/01/08 02:28:56;;;;;;;;;;;;;;;19.45;40.84;102392.09;2058853;28;2168;-66
2024/01/08 02:29:57;;;;;;;;;;;;;;;19.44;40.78;102384.84;2058913;28;2296;-66
2024/01/08 02:31:00;;;;;;;;;;;;;;;19.45;40.83;102397.84;2056940;28;5992;-66
2024/01/08 02:32:01;;;;;;;;;;;;;;;19.45;40.94;102392.09;2061449;28;2199;-66
2024/01/08 02:33:03;;;;;;;;;;;;;;;19.46;40.78;102400.09;2061743;28;2236;-66
2024/01/08 02:34:04;;;;;;;;;;;;;;;19.45;40.94;102398.59;2059510;28;1642;-66
2024/01/08 02:35:06;;;;;;;;;;;;;;;19.45;40.89;102394.97;2059815;28;2070;-66
2024/01/08 02:36:07;;;;;;;;;;;;;;;19.48;40.79;102398.75;2059882;28;2152;-66
2024/01/08 02:37:09;;;;;;;;;;;;;;;19.47;40.84;102395.13;2061786;28;2183;-66
2024/01/08 02:38:10;;;;;;;;;;;;;;;19.46;40.97;102402.22;2059542;28;2327;-65
2024/01/08 02:39:12;;;;;;;;;;;;;;;19.47;40.91;102400.88;2060648;28;2196;-66
2024/01/08 02:40:13;;;;;;;;;;;;;;;19.47;40.85;102403.75;2062827;28;1502;-66
2024/01/08 02:41:14;;;;;;;;;;;;;;;19.48;40.94;102408.13;2059340;28;2236;-65
2024/01/08 02:42:18;;;;;;;;;;;;;;;19.48;40.91;102411.00;2061697;28;2354;-66
2024/01/08 02:43:19;;;;;;;;;;;;;;;19.47;40.84;102400.88;2059968;28;2208;-66
2024/01/08 02:44:21;;;;;;;;;;;;;;;19.47;40.83;102406.63;2062410;28;1982;-66
2024/01/08 02:45:22;;;;;;;;;;;;;;;19.47;40.91;102409.50;2061208;28;2268;-66
2024/01/08 02:46:24;;;;;;;;;;;;;;;19.46;40.94;102410.84;2058017;28;2236;-66
2024/01/08 02:47:25;;;;;;;;;;;;;;;19.46;40.91;102411.59;2060859;28;2023;-66
2024/01/08 02:48:27;;;;;;;;;;;;;;;19.44;40.93;102413.56;2059999;28;1619;-66
2024/01/08 02:49:28;;;;;;;;;;;;;;;19.45;40.95;102417.97;2061112;28;2313;-66
2024/01/08 02:50:30;;;;;;;;;;;;;;;19.43;40.89;102409.19;2058687;28;1996;-66
2024/01/08 02:51:31;;;;;;;;;;;;;;;19.44;40.85;102425.06;2060386;28;1666;-66
2024/01/08 02:52:33;;;;;;;;;;;;;;;19.43;40.97;102424.31;2063907;28;1698;-66
2024/01/08 02:53:34;;;;;;;;;;;;;;;19.43;40.96;102417.81;2058299;28;2215;-66
2024/01/08 02:54:35;;;;;;;;;;;;;;;19.43;40.95;102409.19;2056338;28;2218;-66
2024/01/08 02:55:37;;;;;;;;;;;;;;;19.43;41.00;102429.31;2058563;28;2393;-66
2024/01/08 02:56:38;;;;;;;;;;;;;;;19.43;40.91;102417.81;2062704;28;1469;-66
2024/01/08 02:57:40;;;;;;;;;;;;;;;19.42;40.94;102433.53;2061219;28;2106;-66
2024/01/08 02:58:41;;;;;;;;;;;;;;;19.42;40.94;102428.56;2061904;28;2216;-66
2024/01/08 02:59:42;;;;;;;;;;;;;;;19.42;40.83;102427.78;2057757;28;2193;-66
2024/01/08 03:00:44;;;;;;;;;;;;;;;19.42;40.93;102427.78;2059526;28;6092;-66
2024/01/08 03:01:45;;;;;;;;;;;;;;;19.41;40.88;102432.03;2063461;28;1607;-66
2024/01/08 03:02:47;;;;;;;;;;;;;;;19.42;40.79;102433.53;2065664;28;1622;-66
2024/01/08 03:03:48;;;;;;;;;;;;;;;19.43;40.84;102432.19;2059925;28;2144;-66
2024/01/08 03:04:51;;;;;;;;;;;;;;;19.43;40.81;102440.78;2063348;28;1985;-66
2024/01/08 03:05:54;;;;;;;;;;;;;;;19.44;40.84;102436.53;2061265;28;1592;-66
2024/01/08 03:06:55;;;;;;;;;;;;;;;19.43;40.74;102430.06;2064265;28;2231;-66
2024/01/08 03:07:57;;;;;;;;;;;;;;;19.45;40.84;102432.34;2060327;28;1783;-66
2024/01/08 03:08:58;;;;;;;;;;;;;;;19.44;40.82;102442.28;2061039;28;2276;-65
2024/01/08 03:10:00;;;;;;;;;;;;;;;19.44;40.89;102433.69;2057400;28;2222;-66
2024/01/08 03:11:01;;;;;;;;;;;;;;;19.44;40.90;102425.81;2059356;28;2201;-66
2024/01/08 03:12:03;;;;;;;;;;;;;;;19.45;40.67;102432.34;2058853;28;1619;-66
2024/01/08 03:13:04;;;;;;;;;;;;;;;19.45;40.80;102440.94;2061434;28;1540;-66
2024/01/08 03:14:05;;;;;;;;;;;;;;;19.45;40.90;102432.34;2060331;28;2218;-66
2024/01/08 03:15:07;;;;;;;;;;;;;;;19.45;40.92;102444.56;2061312;28;2237;-66
2024/01/08 03:16:08;;;;;;;;;;;;;;;19.45;40.82;102438.06;2059719;28;1864;-66
2024/01/08 03:17:10;;;;;;;;;;;;;;;19.47;40.83;102438.22;2062393;28;2208;-66
2024/01/08 03:18:12;;;;;;;;;;;;;;;19.47;41.03;102441.09;2061552;28;2120;-66
2024/01/08 03:19:14;;;;;;;;;;;;;;;19.48;40.91;102438.97;2059917;28;2237;-66
2024/01/08 03:20:15;;;;;;;;;;;;;;;19.46;40.96;102440.31;2061696;28;1588;-66
2024/01/08 03:21:17;;;;;;;;;;;;;;;19.47;40.89;102449.72;2064522;28;1700;-66
2024/01/08 03:22:18;;;;;;;;;;;;;;;19.47;41.01;102446.84;2061141;28;2130;-66
2024/01/08 03:23:20;;;;;;;;;;;;;;;19.47;40.85;102446.84;2060270;28;2455;-66
2024/01/08 03:24:21;;;;;;;;;;;;;;;19.48;40.91;102436.13;2059855;28;2242;-66
2024/01/08 03:25:23;;;;;;;;;;;;;;;19.46;40.90;102446.06;2059383;28;1607;-66
2024/01/08 03:26:24;;;;;;;;;;;;;;;19.47;40.94;102452.59;2063133;28;1525;-66
2024/01/08 03:27:26;;;;;;;;;;;;;;;19.46;40.94;102451.06;2061598;28;2204;-66
2024/01/08 03:28:27;;;;;;;;;;;;;;;19.45;40.94;102449.56;2061480;28;1829;-66
2024/01/08 03:29:29;;;;;;;;;;;;;;;19.45;40.86;102461.81;2059369;28;2227;-66
2024/01/08 03:30:31;;;;;;;;;;;;;;;19.44;40.92;102453.78;2059305;28;7367;-66
2024/01/08 03:31:32;;;;;;;;;;;;;;;19.44;40.98;102454.53;2061988;28;2144;-66
2024/01/08 03:32:34;;;;;;;;;;;;;;;19.44;40.98;102453.78;2063480;28;1395;-66
2024/01/08 03:33:36;;;;;;;;;;;;;;;19.43;41.00;102453.03;2062837;28;2188;-66
2024/01/08 03:34:37;;;;;;;;;;;;;;;19.43;40.92;102458.03;2062451;28;1667;-66
2024/01/08 03:35:39;;;;;;;;;;;;;;;19.42;40.96;102457.28;2058975;28;2163;-66
2024/01/08 03:36:44;;;;;;;;;;;;;;;19.41;41.04;102450.00;2066585;28;1809;-66
2024/01/08 03:37:45;;;;;;;;;;;;;;;19.40;41.00;102448.50;2061196;28;1435;-66
2024/01/08 03:38:46;;;;;;;;;;;;;;;19.40;40.92;102464.97;2062460;28;1719;-66
2024/01/08 03:39:48;;;;;;;;;;;;;;;19.40;40.93;102462.09;2056405;28;2359;-66
2024/01/08 03:40:49;;;;;;;;;;;;;;;19.39;40.94;102463.47;2058937;28;2211;-66
2024/01/08 03:41:51;;;;;;;;;;;;;;;19.40;40.99;102464.97;2063488;28;1619;-66
2024/01/08 03:42:52;;;;;;;;;;;;;;;19.39;40.96;102463.47;2062673;28;1546;-66
2024/01/08 03:43:53;;;;;;;;;;;;;;;19.39;41.03;102466.34;2057458;28;2395;-66
2024/01/08 03:44:55;;;;;;;;;;;;;;;19.39;40.95;102463.47;2058532;28;2169;-66
2024/01/08 03:45:56;;;;;;;;;;;;;;;19.38;40.91;102468.47;2058107;28;2299;-66
2024/01/08 03:46:58;;;;;;;;;;;;;;;19.39;40.88;102466.34;2063628;28;2334;-66
2024/01/08 03:47:59;;;;;;;;;;;;;;;19.39;40.93;102480.69;2060178;28;2207;-66
2024/01/08 03:49:02;;;;;;;;;;;;;;;19.40;40.89;102476.47;2062387;28;2309;-66
2024/01/08 03:50:05;;;;;;;;;;;;;;;19.40;40.91;102470.72;2060859;28;1651;-66
2024/01/08 03:51:06;;;;;;;;;;;;;;;19.41;40.87;102473.00;2058891;28;1522;-66
2024/01/08 03:52:08;;;;;;;;;;;;;;;19.41;40.84;102475.13;2059260;28;2148;-65
2024/01/08 03:53:09;;;;;;;;;;;;;;;19.43;40.77;102478.16;2060623;28;2101;-66
2024/01/08 03:54:11;;;;;;;;;;;;;;;19.43;40.74;102481.78;2058635;28;2199;-66
2024/01/08 03:55:13;;;;;;;;;;;;;;;19.43;40.85;102484.63;2062054;28;1556;-66
2024/01/08 03:56:14;;;;;;;;;;;;;;;19.44;40.87;102476.78;2062913;28;1607;-66
2024/01/08 03:57:16;;;;;;;;;;;;;;;19.45;40.89;102484.06;2059643;28;2149;-66
2024/01/08 03:58:17;;;;;;;;;;;;;;;19.45;40.82;102478.31;2059890;28;2216;-66
2024/01/08 03:59:18;;;;;;;;;;;;;;;19.46;40.75;102479.81;2060920;28;2244;-66
2024/01/08 04:00:20;;;;;;;;;;;;;;;19.46;40.83;102483.44;2057661;28;6056;-66
2024/01/08 04:01:21;;;;;;;;;;;;;;;19.47;40.73;102484.22;2062663;28;1565;-66
2024/01/08 04:02:23;;;;;;;;;;;;;;;19.47;40.78;102487.06;2059998;28;2162;-66
2024/01/08 04:03:24;;;;;;;;;;;;;;;19.48;40.87;102482.84;2057893;28;2172;-66
2024/01/08 04:04:26;;;;;;;;;;;;;;;19.48;40.91;102482.09;2055657;28;2201;-67
2024/01/08 04:05:27;;;;;;;;;;;;;;;19.47;40.84;102481.34;2059158;28;2212;-66
2024/01/08 04:06:29;;;;;;;;;;;;;;;19.48;40.86;102485.72;2060755;28;2228;-66
2024/01/08 04:07:30;;;;;;;;;;;;;;;19.48;40.88;102494.31;2061182;28;1904;-66
2024/01/08 04:08:32;;;;;;;;;;;;;;;19.50;40.82;102490.84;2058732;28;2215;-66
2024/01/08 04:09:33;;;;;;;;;;;;;;;19.49;40.92;102498.69;2060777;28;2024;-66
2024/01/08 04:10:35;;;;;;;;;;;;;;;19.50;40.83;102494.47;2061099;28;2211;-66
2024/01/08 04:11:36;;;;;;;;;;;;;;;19.50;40.91;102502.34;2060130;28;2189;-66
2024/01/08 04:12:38;;;;;;;;;;;;;;;19.51;40.81;102498.84;2060286;28;2224;-66
2024/01/08 04:13:39;;;;;;;;;;;;;;;19.50;40.82;102499.47;2061785;28;2160;-66
2024/01/08 04:14:41;;;;;;;;;;;;;;;19.51;40.89;102498.84;2062909;28;2232;-67
2024/01/08 04:15:42;;;;;;;;;;;;;;;19.52;40.89;102499.63;2057293;28;2169;-66
2024/01/08 04:16:44;;;;;;;;;;;;;;;19.52;40.89;102502.50;2060643;28;2284;-66
2024/01/08 04:17:45;;;;;;;;;;;;;;;19.52;40.96;102500.38;2060886;28;1694;-66
2024/01/08 04:18:47;;;;;;;;;;;;;;;19.52;40.95;102499.63;2060446;28;2279;-66
2024/01/08 04:19:48;;;;;;;;;;;;;;;19.52;40.83;102499.63;2059738;28;2218;-66
2024/01/08 04:20:50;;;;;;;;;;;;;;;19.53;40.93;102506.88;2062139;28;2498;-66
2024/01/08 04:21:51;;;;;;;;;;;;;;;19.53;41.02;102513.38;2062224;28;1710;-66
2024/01/08 04:22:53;;;;;;;;;;;;;;;19.54;41.00;102514.91;2059641;28;2201;-66
2024/01/08 04:23:54;;;;;;;;;;;;;;;19.54;40.96;102512.03;2061915;28;2267;-66
2024/01/08 04:24:55;;;;;;;;;;;;;;;19.53;40.90;102507.63;2060206;28;2165;-66
2024/01/08 04:25:57;;;;;;;;;;;;;;;19.54;40.94;102512.03;2061754;28;2272;-66
2024/01/08 04:26:58;;;;;;;;;;;;;;;19.54;40.78;102517.00;2060692;28;2332;-66
2024/01/08 04:28:00;;;;;;;;;;;;;;;19.53;41.05;102516.25;2059896;28;2145;-66
2024/01/08 04:29:01;;;;;;;;;;;;;;;19.54;40.98;102512.03;2059066;28;2208;-66
2024/01/08 04:30:03;;;;;;;;;;;;;;;19.53;41.02;102516.25;2060621;28;6139;-65
2024/01/08 04:31:04;;;;;;;;;;;;;;;19.53;40.99;102513.38;2058326;28;1662;-66
2024/01/08 04:32:06;;;;;;;;;;;;;;;19.54;41.09;102523.53;2058861;28;2196;-66
2024/01/08 04:33:07;;;;;;;;;;;;;;;19.55;41.01;102525.03;2057574;28;2240;-66
2024/01/08 04:34:09;;;;;;;;;;;;;;;19.56;40.97;102528.66;2060713;28;1579;-66
2024/01/08 04:35:10;;;;;;;;;;;;;;;19.55;40.99;102527.91;2060342;28;1849;-66
2024/01/08 04:36:12;;;;;;;;;;;;;;;19.54;41.03;102514.91;2061044;28;1944;-66
2024/01/08 04:37:13;;;;;;;;;;;;;;;19.55;40.98;102530.78;2057935;28;2236;-66
2024/01/08 04:38:15;;;;;;;;;;;;;;;19.56;40.96;102517.94;2063000;28;1972;-68
2024/01/08 04:39:16;;;;;;;;;;;;;;;19.56;40.95;102523.69;2059500;28;2208;-66
2024/01/08 04:40:18;;;;;;;;;;;;;;;19.57;40.93;102525.19;2060112;28;2200;-66
2024/01/08 04:41:19;;;;;;;;;;;;;;;19.57;41.04;102528.06;2056070;28;2480;-66
2024/01/08 04:42:21;;;;;;;;;;;;;;;19.57;41.07;102528.06;2058296;28;2251;-66
2024/01/08 04:43:23;;;;;;;;;;;;;;;19.58;41.09;102520.19;2064218;28;2171;-66
2024/01/08 04:44:25;;;;;;;;;;;;;;;19.58;41.06;102526.69;2059746;28;1658;-66
2024/01/08 04:45:26;;;;;;;;;;;;;;;19.58;41.03;102526.69;2057268;28;2351;-66
2024/01/08 04:46:28;;;;;;;;;;;;;;;19.58;41.02;102526.69;2062458;28;2255;-66
2024/01/08 04:47:29;;;;;;;;;;;;;;;19.59;41.08;102533.97;2061073;28;1726;-66
2024/01/08 04:48:31;;;;;;;;;;;;;;;19.60;40.97;102535.47;2061362;28;1714;-66
2024/01/08 04:49:32;;;;;;;;;;;;;;;19.60;41.03;102532.59;2059680;28;1731;-66
2024/01/08 04:50:34;;;;;;;;;;;;;;;19.59;41.04;102536.84;2061517;28;1718;-66
2024/01/08 04:51:35;;;;;;;;;;;;;;;19.60;41.08;102529.72;2061378;28;1674;-66
2024/01/08 04:52:37;;;;;;;;;;;;;;;19.60;40.93;102526.84;2056592;28;2011;-66
2024/01/08 04:53:38;;;;;;;;;;;;;;;19.61;40.89;102530.50;2060774;28;1631;-66
2024/01/08 04:54:43;;;;;;;;;;;;;;;19.61;41.00;102539.13;2061192;28;1951;-66
2024/01/08 04:55:44;;;;;;;;;;;;;;;19.60;40.93;102538.34;2057318;28;2408;-68
2024/01/08 04:56:48;;;;;;;;;;;;;;;19.60;41.09;102546.97;2062135;28;1600;-67
2024/01/08 04:57:49;;;;;;;;;;;;;;;19.61;41.05;102542.75;2058672;28;2204;-67
2024/01/08 04:58:51;;;;;;;;;;;;;;;19.61;40.97;102548.50;2058276;28;2243;-67
2024/01/08 04:59:52;;;;;;;;;;;;;;;19.60;41.04;102546.97;2059683;28;2263;-67
2024/01/08 05:00:54;;;;;;;;;;;;;;;19.61;40.92;102548.50;2059879;28;6322;-67
2024/01/08 05:01:55;;;;;;;;;;;;;;;19.60;41.03;102558.47;2060041;28;1837;-67
2024/01/08 05:02:57;;;;;;;;;;;;;;;19.61;41.12;102557.13;2060748;28;1877;-67
2024/01/08 05:03:58;;;;;;;;;;;;;;;19.60;41.11;102557.72;2063039;28;2075;-67
2024/01/08 05:05:01;;;;;;;;;;;;;;;19.59;41.16;102545.47;2057947;28;2149;-67
2024/01/08 05:06:03;;;;;;;;;;;;;;;19.59;41.10;102551.22;2061034;28;2231;-67
2024/01/08 05:07:04;;;;;;;;;;;;;;;19.60;41.08;102546.97;2060577;28;1869;-67
2024/01/08 05:08:06;;;;;;;;;;;;;;;19.60;41.00;102552.72;2051684;28;2262;-67
2024/01/08 05:09:08;;;;;;;;;;;;;;;19.60;41.09;102555.59;2053481;28;1610;-67
2024/01/08 05:10:10;;;;;;;;;;;;;;;19.62;40.89;102555.75;2059355;28;2225;-67
2024/01/08 05:11:11;;;;;;;;;;;;;;;19.60;41.02;102558.47;2056388;28;2251;-67
2024/01/08 05:12:12;;;;;;;;;;;;;;;19.61;41.09;102551.38;2060108;28;2441;-67
2024/01/08 05:13:14;;;;;;;;;;;;;;;19.61;41.05;102554.25;2060308;28;2197;-67
2024/01/08 05:14:15;;;;;;;;;;;;;;;19.61;40.93;102562.88;2056829;28;2195;-66
2024/01/08 05:15:17;;;;;;;;;;;;;;;19.61;41.03;102557.13;2059711;28;2231;-67
2024/01/08 05:16:18;;;;;;;;;;;;;;;19.62;41.11;102549.25;2059904;28;1865;-67
2024/01/08 05:17:20;;;;;;;;;;;;;;;19.60;41.10;102552.72;2061186;28;2077;-67
2024/01/08 05:18:25;;;;;;;;;;;;;;;19.60;40.98;102549.84;2060546;28;2286;-67
2024/01/08 05:19:26;;;;;;;;;;;;;;;19.60;40.98;102552.72;2061715;28;1607;-67
2024/01/08 05:20:30;;;;;;;;;;;;;;;19.61;41.05;102554.25;2060627;28;2125;-67
2024/01/08 05:21:31;;;;;;;;;;;;;;;19.61;41.00;102554.25;2059965;28;1888;-67